ADDS METAR Data INFO
IDs: Format: Raw Decoded Include TAF

Data at: 1807 UTC 18 Feb 2018

KJKA 181755Z AUTO 17008KT 130V200 10SM CLR 23/19 A3021 RMK AO2 T02330185 10242 20172
KJKA 181735Z AUTO 18009KT 10SM CLR 24/18 A3021 RMK AO2 T02400183
KJKA 181715Z AUTO 19010KT 10SM CLR 24/18 A3022 RMK AO2 T02350181
KJKA 181655Z AUTO 16008KT 110V190 10SM CLR 24/18 A3022 RMK AO2 T02380182
KJKA 181635Z AUTO 14006KT 10SM CLR 24/18 A3023 RMK AO2 T02350183
KJKA 181615Z AUTO 15005KT 10SM SCT012 23/18 A3023 RMK AO2 T02280183
KJKA 181555Z AUTO 18004KT 10SM SCT012 23/19 A3023 RMK AO2 T02270192
KJKA 181535Z AUTO 17004KT 10SM SCT008 21/20 A3023 RMK AO2 T02090195
KJKA 181515Z AUTO 00000KT 10SM OVC006 20/20 A3022 RMK AO2 T01960196
KJKA 181455Z AUTO 14003KT 10SM OVC006 19/19 A3022 RMK AO2 T01910191
KJKA 181435Z AUTO 32003KT 10SM OVC006 19/19 A3022 RMK AO2 T01870187
KJKA 181415Z AUTO 28005KT 7SM OVC006 18/18 A3021 RMK AO2 T01840184
KJKA 181355Z AUTO 28005KT 7SM OVC006 18/18 A3021 RMK AO2 T01830183
KJKA 181335Z AUTO 23004KT 5SM BR OVC006 18/18 A3020 RMK AO2 T01810181
KJKA 181315Z AUTO 30005KT 4SM BR OVC008 18/18 A3019 RMK AO2 T01800180
KJKA 181255Z AUTO 29004KT 5SM BR OVC008 18/18 A3019 RMK AO2 T01800180
KJKA 181235Z AUTO 00000KT 5SM BR OVC008 18/18 A3018 RMK AO2 T01770177
KJKA 181215Z AUTO 25005KT 7SM OVC008 18/18 A3018 RMK AO2 T01770177
KJKA 181155Z AUTO 29005KT 5SM BR OVC008 18/18 A3017 RMK AO2 T01750175 10184 20147
KJKA 181135Z AUTO 26004KT 5SM BR OVC008 17/17 A3016 RMK AO2 T01700170
KJKA 181115Z AUTO 00000KT 5SM BR OVC008 17/17 A3016 RMK AO2 T01700170
KJKA 181055Z AUTO 00000KT 7SM OVC008 17/17 A3016 RMK AO2 T01660166
KJKA 181035Z AUTO 00000KT 5SM BR OVC008 17/17 A3015 RMK AO2 T01670167
KJKA 181015Z AUTO 00000KT 4SM BR BKN010 16/16 A3015 RMK AO2 T01560156
KJKA 180955Z AUTO 00000KT 1/2SM FG BKN010 16/16 A3015 RMK AO2 T01640164
KJKA 180935Z AUTO 00000KT 1/4SM FG OVC008 16/16 A3014 RMK AO2 T01600160
KJKA 180915Z AUTO 00000KT 1/4SM FG OVC008 15/15 A3014 RMK AO2 T01500150
KJKA 180855Z AUTO 11003KT 1/2SM FG VV005 17/17 A3014 RMK AO2 T01670167
KJKA 180835Z AUTO 00000KT 1/4SM FG BKN005 BKN010 15/15 A3014 RMK AO2 T01490149
KJKA 180815Z AUTO 02004KT 1/4SM FG VV002 17/17 A3013 RMK AO2 T01700170
KJKA 180755Z AUTO 28003KT 1 1/4SM BR VV007 18/18 A3013 RMK AO2 T01770177
KJKA 180735Z AUTO 24003KT 5SM BR CLR 17/17 A3013 RMK AO2 T01720172
KJKA 180715Z AUTO 34003KT 2 1/2SM BR CLR 18/18 A3013 RMK AO2 T01780178
KJKA 180655Z AUTO 32003KT 1 3/4SM BR VV007 18/18 A3014 RMK AO2 VIS 1V5 T01800180
KJKA 180635Z AUTO 09003KT 4SM BR CLR 17/17 A3014 RMK AO2 T01740174
KJKA 180615Z AUTO 26004KT 7SM CLR 18/18 A3014 RMK AO2 T01820182
KJKA 180555Z AUTO 29004KT 10SM CLR 18/18 A3014 RMK AO2 T01810181 10194 20176
KJKA 180535Z AUTO 00000KT 10SM CLR 19/19 A3015 RMK AO2 T01880188
KJKA 180515Z AUTO 22003KT 10SM CLR 19/19 A3015 RMK AO2 T01920192
KJKA 180455Z AUTO 22004KT 10SM CLR 19/19 A3015 RMK AO2 T01910191 402550171
KJKA 180435Z AUTO 21005KT 10SM CLR 19/19 A3015 RMK AO2 T01940194
KJKA 180415Z AUTO 19006KT 10SM CLR 19/19 A3015 RMK AO2 T01910191
KJKA 180355Z AUTO 20003KT 10SM CLR 19/19 A3016 RMK AO2 T01900190
KJKA 180335Z AUTO 18004KT 10SM CLR 19/19 A3016 RMK AO2 T01900190
KJKA 180315Z AUTO 20005KT 10SM CLR 19/19 A3016 RMK AO2 T01910191
KJKA 180255Z AUTO 16003KT 10SM CLR 19/19 A3016 RMK AO2 T01860186
KJKA 180235Z AUTO 13005KT 10SM CLR 19/19 A3015 RMK AO2 T01910191
KJKA 180215Z AUTO 12007KT 1 3/4SM BR VV007 18/18 A3015 RMK AO2 T01820182
KJKA 180155Z AUTO 14004KT 1/2SM FG SCT005 18/18 A3015 RMK AO2 T01800180
KJKA 180135Z AUTO 18005KT 1/4SM FG BKN005 18/18 A3015 RMK AO2 T01810181
KJKA 180115Z AUTO 00000KT 1 1/4SM BR VV007 18/18 A3015 RMK AO2 T01810181
KJKA 180055Z AUTO 00000KT 10SM CLR 19/19 A3015 RMK AO2 T01920192
KJKA 180035Z AUTO 13005KT 10SM CLR 19/19 A3015 RMK AO2 T01910191
KJKA 180015Z AUTO 13004KT 10SM SCT003 19/19 A3015 RMK AO2 T01900190
KJKA 172355Z AUTO 13008KT 120V190 10SM SCT003 19/19 A3014 RMK AO2 T01930193 10255 20193
KJKA 172335Z AUTO 14006KT 10SM CLR 20/20 A3014 RMK AO2 T01970197
KJKA 172315Z AUTO 15006KT 10SM CLR 20/20 A3014 RMK AO2 T02010201
KJKA 172255Z AUTO 19006KT 10SM CLR 21/20 A3014 RMK AO2 T02080200
KJKA 172235Z AUTO 18007KT 10SM CLR 22/20 A3014 RMK AO2 T02150197
KJKA 172215Z AUTO 18008KT 10SM CLR 23/19 A3013 RMK AO2 T02320193
KJKA 172155Z AUTO 22007KT 10SM SCT022 24/19 A3013 RMK AO2 T02400190
KJKA 172135Z AUTO 27007KT 10SM SCT024 SCT029 25/19 A3014 RMK AO2 T02490189
KJKA 172115Z AUTO 25005KT 10SM SCT024 BKN034 26/19 A3014 RMK AO2 T02550190
KJKA 172055Z AUTO 28008KT 240V300 10SM SCT022 SCT028 SCT035 25/19 A3014 RMK AO2 T02450187
KJKA 172035Z AUTO 25008KT 10SM SCT018 25/19 A3014 RMK AO2 T02480190
KJKA 172015Z AUTO 26009KT 10SM SCT018 25/19 A3015 RMK AO2 T02450191
KJKA 171955Z AUTO 28008KT 10SM SCT016 25/19 A3015 RMK AO2 T02490194
KJKA 171935Z AUTO 26011G14KT 10SM SCT016 SCT060 BKN070 25/19 A3015 RMK AO2 T02470194
KJKA 171915Z AUTO 26009KT 10SM SCT014 SCT065 BKN070 24/20 A3015 RMK AO2 T02440195
KJKA 171855Z AUTO 25007KT 10SM SCT012 SCT065 BKN070 24/20 A3016 RMK AO2 T02400196
KJKA 171835Z AUTO 24007G14KT 10SM SCT012 SCT023 SCT065 24/20 A3017 RMK AO2 T02380196
KJKA 171815Z AUTO 25008KT 10SM SCT012 BKN065 24/20 A3018 RMK AO2 T02400197
KJKA 171755Z AUTO 26008KT 10SM BKN012 OVC065 24/20 A3018 RMK AO2 T02360198 10243 20182
KJKA 171735Z AUTO 24007KT 10SM BKN010 OVC065 24/20 A3018 RMK AO2 T02370199
KJKA 171715Z AUTO 25007KT 10SM BKN010 BKN023 OVC065 23/20 A3019 RMK AO2 T02320200
KJKA 171655Z AUTO 24006KT 10SM BKN008 BKN021 OVC065 22/20 A3018 RMK AO2 T02240200
KJKA 171635Z AUTO 26006KT 10SM BKN010 BKN014 OVC021 22/20 A3018 RMK AO2 T02190201
KJKA 171615Z AUTO 27006KT 10SM OVC010 22/20 A3018 RMK AO2 T02200201
KJKA 171555Z AUTO 28006KT 10SM OVC008 22/20 A3018 RMK AO2 T02200203
KJKA 171535Z AUTO 24005KT 10SM OVC008 22/21 A3017 RMK AO2 T02170205
KJKA 171515Z AUTO 26006KT 10SM OVC010 21/21 A3016 RMK AO2 T02110207
KJKA 171455Z AUTO 28006KT 10SM OVC010 21/21 A3015 RMK AO2 T02130205
KJKA 171435Z AUTO 25003KT 10SM SCT005 BKN012 21/21 A3015 RMK AO2 T02080207
KJKA 171415Z AUTO 26004KT 10SM BKN005 BKN015 20/20 A3015 RMK AO2 T02010201
KJKA 171355Z AUTO 27004KT 10SM BKN003 OVC017 20/20 A3014 RMK AO2 T01980198
KJKA 171335Z AUTO 27005KT 10SM SCT005 BKN017 BKN022 20/20 A3014 RMK AO2 T01990199
KJKA 171315Z AUTO 27004KT 7SM SCT005 SCT023 19/19 A3013 RMK AO2 T01900190
KJKA 171255Z AUTO 01004KT 5SM BR BKN005 BKN009 BKN016 19/19 A3013 RMK AO2 T01860186
KJKA 171235Z AUTO 23003KT 10SM BKN009 BKN017 19/19 A3013 RMK AO2 T01900190
KJKA 171215Z AUTO 23005KT 10SM OVC009 19/19 A3013 RMK AO2 T01860186
KJKA 171155Z AUTO 06004KT 7SM SCT007 OVC012 19/19 A3013 RMK AO2 70001 T01850185 10192 20171
KJKA 171135Z AUTO 10006KT 10SM OVC012 19/19 A3012 RMK AO2 T01850185
KJKA 171115Z AUTO 05004KT 10SM OVC014 19/19 A3012 RMK AO2 T01860186
KJKA 171055Z AUTO 12004KT 10SM BKN016 OVC045 18/18 A3012 RMK AO2 T01830183
KJKA 171035Z AUTO 24003KT 10SM SCT016 BKN045 18/18 A3011 RMK AO2 T01750175
KJKA 171015Z AUTO 25003KT 10SM SCT036 SCT043 18/18 A3011 RMK AO2 T01770177
KJKA 170955Z AUTO 24003KT 10SM BKN036 18/18 A3011 RMK AO2 T01760176
KJKA 170935Z AUTO 26004KT 10SM SCT036 18/18 A3011 RMK AO2 T01760176
KJKA 170915Z AUTO 24005KT 10SM BKN036 BKN042 19/19 A3011 RMK AO2 T01850185
KJKA 170855Z AUTO 25005KT 10SM OVC036 19/19 A3011 RMK AO2 T01900190
KJKA 170835Z AUTO 25005KT 10SM BKN036 BKN043 BKN060 18/18 A3011 RMK AO2 T01830183
KJKA 170815Z AUTO 27003KT 10SM BKN034 BKN042 OVC060 19/19 A3011 RMK AO2 T01870187
KJKA 170755Z AUTO 23003KT 10SM SCT032 BKN060 19/19 A3012 RMK AO2 T01870187
KJKA 170735Z AUTO 28004KT 10SM BKN060 19/19 A3012 RMK AO2 T01860186
KJKA 170715Z AUTO 25005KT 10SM BKN060 19/19 A3012 RMK AO2 T01910191
KJKA 170655Z AUTO 24006KT 10SM SCT060 19/19 A3013 RMK AO2 T01900190
KJKA 170635Z AUTO 24006KT 10SM CLR 19/19 A3013 RMK AO2 T01900190
KJKA 170615Z AUTO 24006KT 10SM CLR 19/19 A3013 RMK AO2 T01900190